Time;durP1;ratioP1;P1;durP2;ratioP2;P2;SDS_P1;SDS_P2;PMS_P1;PMS_P2;Temp;Humidity;BMP_temperature;BMP_pressure;BME280_temperature;BME280_humidity;BME280_pressure;Samples;Min_cycle;Max_cycle;Signal;HPM_P1;HPM_P2
2022/12/06 00:01:07;;;;;;;1.80;0.90;;;;;;;;;;5074230;28;20032;-42
2022/12/06 00:03:33;;;;;;;2.08;1.35;;;;;;;;;;5073720;28;20032;-41
2022/12/06 00:06:06;;;;;;;6.18;1.23;;;;;;;;;;5073820;28;20021;-42
2022/12/06 00:08:31;;;;;;;;;;;;;;;;;;5072822;28;20044;-41
2022/12/06 00:11:07;;;;;;;2.75;1.02;;;;;;;;;;5073742;28;20306;-41
2022/12/06 00:13:33;;;;;;;3.72;1.70;;;;;;;;;;5073776;28;20039;-41
2022/12/06 00:16:00;;;;;;;6.80;1.67;;;;;;;;;;5073555;28;20391;-42
2022/12/06 00:18:25;;;;;;;1.98;1.02;;;;;;;;;;5055475;28;20032;-42
2022/12/06 00:20:50;;;;;;;2.67;1.63;;;;;;;;;;5073485;28;20024;-41
2022/12/06 00:23:16;;;;;;;7.05;2.00;;;;;;;;;;5073743;28;20456;-42
2022/12/06 00:25:41;;;;;;;2.58;1.50;;;;;;;;;;5073199;28;20028;-41
2022/12/06 00:28:07;;;;;;;4.03;1.58;;;;;;;;;;5073286;28;20126;-42
2022/12/06 00:30:32;;;;;;;2.30;1.45;;;;;;;;;;5073560;28;20085;-42
2022/12/06 00:32:57;;;;;;;3.33;1.30;;;;;;;;;;5073190;28;20109;-42
2022/12/06 00:35:23;;;;;;;4.05;1.48;;;;;;;;;;5073159;28;20027;-42
2022/12/06 00:37:48;;;;;;;4.40;1.65;;;;;;;;;;5073534;28;20469;-42
2022/12/06 00:40:13;;;;;;;5.03;1.40;;;;;;;;;;5072286;28;20040;-42
2022/12/06 00:42:39;;;;;;;1.60;1.48;;;;;;;;;;5072887;28;20028;-42
2022/12/06 00:45:04;;;;;;;3.75;1.20;;;;;;;;;;5073213;28;20052;-42
2022/12/06 00:47:30;;;;;;;2.30;1.58;;;;;;;;;;5072732;28;20047;-41
2022/12/06 00:49:55;;;;;;;4.40;1.55;;;;;;;;;;5073241;28;20024;-42
2022/12/06 00:52:20;;;;;;;2.33;1.10;;;;;;;;;;5072863;28;20112;-42
2022/12/06 00:54:46;;;;;;;3.40;1.85;;;;;;;;;;5072804;28;20056;-41
2022/12/06 00:57:11;;;;;;;5.13;1.98;;;;;;;;;;5073062;28;20043;-41
2022/12/06 00:59:36;;;;;;;6.55;2.30;;;;;;;;;;5072928;28;20032;-41
2022/12/06 01:02:02;;;;;;;8.60;2.25;;;;;;;;;;5072683;28;20036;-43
2022/12/06 01:04:27;;;;;;;4.97;2.85;;;;;;;;;;5072420;28;20028;-42
2022/12/06 01:06:52;;;;;;;5.03;1.88;;;;;;;;;;5072826;28;20048;-42
2022/12/06 01:09:18;;;;;;;7.03;2.42;;;;;;;;;;5072524;28;20091;-42
2022/12/06 01:11:43;;;;;;;2.08;1.23;;;;;;;;;;5072322;28;20032;-42
2022/12/06 01:14:08;;;;;;;3.17;1.55;;;;;;;;;;5072696;28;20020;-42
2022/12/06 01:16:34;;;;;;;3.95;2.00;;;;;;;;;;5072473;28;20035;-42
2022/12/06 01:19:00;;;;;;;2.65;1.50;;;;;;;;;;5072363;28;20040;-42
2022/12/06 01:21:26;;;;;;;4.13;2.25;;;;;;;;;;5072421;28;20036;-42
2022/12/06 01:23:54;;;;;;;3.28;1.77;;;;;;;;;;5072087;28;20020;-42
2022/12/06 01:26:21;;;;;;;5.10;2.03;;;;;;;;;;5072173;28;20036;-43
2022/12/06 01:28:47;;;;;;;3.05;2.47;;;;;;;;;;5071984;28;20032;-41
2022/12/06 01:31:13;;;;;;;6.20;2.30;;;;;;;;;;5072400;28;20039;-42
2022/12/06 01:33:39;;;;;;;3.42;1.65;;;;;;;;;;5071974;28;20025;-42
2022/12/06 01:36:04;;;;;;;4.95;1.67;;;;;;;;;;5071873;28;20399;-42
2022/12/06 01:38:30;;;;;;;5.28;2.45;;;;;;;;;;5071962;28;20085;-42
2022/12/06 01:40:55;;;;;;;3.95;2.33;;;;;;;;;;5072023;28;20422;-42
2022/12/06 01:43:32;;;;;;;4.05;1.92;;;;;;;;;;5072125;28;20066;-42
2022/12/06 01:46:00;;;;;;;4.90;1.80;;;;;;;;;;5071933;28;20116;-42
2022/12/06 01:48:26;;;;;;;3.28;1.67;;;;;;;;;;5071740;28;20111;-42
2022/12/06 01:50:52;;;;;;;3.85;1.60;;;;;;;;;;5071772;28;20113;-42
2022/12/06 01:53:18;;;;;;;4.25;2.08;;;;;;;;;;5071758;28;20115;-42
2022/12/06 01:55:44;;;;;;;2.20;1.38;;;;;;;;;;5071500;28;20044;-42
2022/12/06 01:58:11;;;;;;;4.38;2.17;;;;;;;;;;5071646;28;20033;-42
2022/12/06 02:00:36;;;;;;;3.92;2.60;;;;;;;;;;5071876;28;20024;-41
2022/12/06 02:03:03;;;;;;;1.48;1.38;;;;;;;;;;5071660;28;20464;-42
2022/12/06 02:05:29;;;;;;;2.38;2.17;;;;;;;;;;5071573;28;20085;-42
2022/12/06 02:07:54;;;;;;;2.08;1.23;;;;;;;;;;5071799;28;20688;-42
2022/12/06 02:10:20;;;;;;;3.08;1.58;;;;;;;;;;5071526;28;20537;-42
2022/12/06 02:12:48;;;;;;;2.25;1.30;;;;;;;;;;5071362;28;20538;-41
2022/12/06 02:15:14;;;;;;;2.00;1.70;;;;;;;;;;5071463;28;20460;-42
2022/12/06 02:17:39;;;;;;;1.80;1.65;;;;;;;;;;5071366;28;20066;-42
2022/12/06 02:20:17;;;;;;;3.50;1.70;;;;;;;;;;5071449;28;20474;-41
2022/12/06 02:23:01;;;;;;;3.40;1.40;;;;;;;;;;5071253;28;20033;-42
2022/12/06 02:25:29;;;;;;;2.35;1.73;;;;;;;;;;5071475;28;20090;-42
2022/12/06 02:28:10;;;;;;;3.25;2.03;;;;;;;;;;5071181;28;20016;-41
2022/12/06 02:30:58;;;;;;;2.30;1.83;;;;;;;;;;5071551;28;20031;-42
2022/12/06 02:33:29;;;;;;;3.38;1.85;;;;;;;;;;5065513;28;20048;-42
2022/12/06 02:36:03;;;;;;;6.07;3.10;;;;;;;;;;5071250;28;20029;-42
2022/12/06 02:38:34;;;;;;;3.33;1.52;;;;;;;;;;5071217;28;20036;-42
2022/12/06 02:41:01;;;;;;;3.45;2.13;;;;;;;;;;5071046;28;20037;-42
2022/12/06 02:43:30;;;;;;;3.75;2.30;;;;;;;;;;5071200;28;20107;-42
2022/12/06 02:45:57;;;;;;;3.05;1.88;;;;;;;;;;5071191;28;20037;-42
2022/12/06 02:48:24;;;;;;;4.63;2.13;;;;;;;;;;5071234;28;20035;-42
2022/12/06 02:50:55;;;;;;;2.28;1.60;;;;;;;;;;5071133;28;20056;-42
2022/12/06 02:53:21;;;;;;;4.40;1.58;;;;;;;;;;5071290;28;20048;-42
2022/12/06 02:55:46;;;;;;;4.32;2.25;;;;;;;;;;5070802;28;20045;-41
2022/12/06 02:58:12;;;;;;;5.85;3.40;;;;;;;;;;5071029;28;20078;-42
2022/12/06 03:00:39;;;;;;;2.58;1.70;;;;;;;;;;5071474;28;20060;-42
2022/12/06 03:03:10;;;;;;;5.40;2.85;;;;;;;;;;5070979;28;20029;-42
2022/12/06 03:05:41;;;;;;;3.10;1.98;;;;;;;;;;5074420;28;20060;-41
2022/12/06 03:08:10;;;;;;;4.65;1.92;;;;;;;;;;5075148;28;20523;-41
2022/12/06 03:10:36;;;;;;;4.63;2.10;;;;;;;;;;5074589;28;20070;-43
2022/12/06 03:13:01;;;;;;;3.38;2.35;;;;;;;;;;5074751;28;20427;-42
2022/12/06 03:15:32;;;;;;;3.47;2.25;;;;;;;;;;5074612;28;20020;-42
2022/12/06 03:18:04;;;;;;;3.90;2.30;;;;;;;;;;5074933;28;20043;-41
2022/12/06 03:20:41;;;;;;;2.97;1.58;;;;;;;;;;5074590;28;20054;-41
2022/12/06 03:23:08;;;;;;;6.78;1.83;;;;;;;;;;5074815;28;20032;-42
2022/12/06 03:25:34;;;;;;;5.20;2.28;;;;;;;;;;5074311;28;20056;-42
2022/12/06 03:28:00;;;;;;;3.83;1.83;;;;;;;;;;5074647;28;20109;-42
2022/12/06 03:30:27;;;;;;;2.78;1.55;;;;;;;;;;5074322;28;20474;-42
2022/12/06 03:32:53;;;;;;;3.05;1.58;;;;;;;;;;5074424;28;20028;-42
2022/12/06 03:35:24;;;;;;;2.85;1.73;;;;;;;;;;5074412;28;20383;-42
2022/12/06 03:38:00;;;;;;;0.47;0.47;;;;;;;;;;5074480;28;20517;-42
2022/12/06 03:40:27;;;;;;;1.67;0.90;;;;;;;;;;5074519;28;20078;-42
2022/12/06 03:42:53;;;;;;;1.27;1.17;;;;;;;;;;5074236;28;20021;-42
2022/12/06 03:45:19;;;;;;;1.35;1.23;;;;;;;;;;5073996;28;20051;-43
2022/12/06 03:47:51;;;;;;;1.30;1.20;;;;;;;;;;5072720;28;20036;-41
2022/12/06 03:50:19;;;;;;;1.17;0.90;;;;;;;;;;5074303;28;20036;-42
2022/12/06 03:52:45;;;;;;;0.70;0.70;;;;;;;;;;5074233;28;20152;-41
2022/12/06 03:55:10;;;;;;;2.17;1.27;;;;;;;;;;5073782;28;20041;-42
2022/12/06 03:57:35;;;;;;;2.40;1.30;;;;;;;;;;5072779;28;20060;-42
2022/12/06 04:00:01;;;;;;;2.47;1.30;;;;;;;;;;5074130;28;20409;-42
2022/12/06 04:02:27;;;;;;;2.38;1.83;;;;;;;;;;5073793;28;20039;-42
2022/12/06 04:04:52;;;;;;;2.65;1.35;;;;;;;;;;5073842;28;20052;-42
2022/12/06 04:07:20;;;;;;;3.08;1.90;;;;;;;;;;5073825;28;20025;-41
2022/12/06 04:09:54;;;;;;;1.85;1.55;;;;;;;;;;5073662;28;20103;-43
2022/12/06 04:15:04;;;;;;;1.50;1.30;;;;;;;;;;5073605;28;20037;-41
2022/12/06 04:20:14;;;;;;;3.75;2.15;;;;;;;;;;5073642;28;20048;-41
2022/12/06 04:25:23;;;;;;;4.85;2.60;;;;;;;;;;5073486;28;20039;-42
2022/12/06 04:38:44;;;;;;;3.58;1.67;;;;;;;;;;5073484;28;20101;-42
2022/12/06 04:41:10;;;;;;;4.95;1.83;;;;;;;;;;5073014;28;20542;-42
2022/12/06 04:43:41;;;;;;;2.88;1.70;;;;;;;;;;5072949;28;20028;-42
2022/12/06 04:46:10;;;;;;;0.77;0.63;;;;;;;;;;5073002;28;20067;-42
2022/12/06 04:48:35;;;;;;;1.55;1.15;;;;;;;;;;5072745;28;20036;-42
2022/12/06 04:51:01;;;;;;;0.60;0.43;;;;;;;;;;5073188;28;20024;-42
2022/12/06 04:53:26;;;;;;;4.25;1.38;;;;;;;;;;5072776;28;20025;-42
2022/12/06 04:55:52;;;;;;;1.50;1.38;;;;;;;;;;5072642;28;20047;-42
2022/12/06 04:58:17;;;;;;;3.55;1.83;;;;;;;;;;5072792;28;20037;-42
2022/12/06 05:00:43;;;;;;;3.05;1.48;;;;;;;;;;5072697;28;20032;-42
2022/12/06 05:03:12;;;;;;;1.85;0.90;;;;;;;;;;5072628;28;20021;-42
2022/12/06 05:05:38;;;;;;;2.60;1.85;;;;;;;;;;5072776;28;20032;-42
2022/12/06 05:08:04;;;;;;;2.75;2.17;;;;;;;;;;5072594;28;20040;-42
2022/12/06 05:10:30;;;;;;;2.70;1.90;;;;;;;;;;5071018;28;20056;-42
2022/12/06 05:12:55;;;;;;;2.30;2.10;;;;;;;;;;5072501;28;20028;-42
2022/12/06 05:15:21;;;;;;;2.53;1.90;;;;;;;;;;5072363;28;20032;-42
2022/12/06 05:17:46;;;;;;;1.75;1.45;;;;;;;;;;5072165;28;20066;-42
2022/12/06 05:20:13;;;;;;;4.40;2.55;;;;;;;;;;5072651;28;20063;-42
2022/12/06 05:22:38;;;;;;;4.95;2.22;;;;;;;;;;5072264;28;20078;-41
2022/12/06 05:25:04;;;;;;;3.05;2.38;;;;;;;;;;5072221;28;20032;-42
2022/12/06 05:27:29;;;;;;;4.55;2.80;;;;;;;;;;5071603;28;20032;-41
2022/12/06 05:29:55;;;;;;;3.42;2.50;;;;;;;;;;5072074;28;20040;-41
2022/12/06 05:32:20;;;;;;;3.88;2.50;;;;;;;;;;5072122;28;20016;-42
2022/12/06 05:34:45;;;;;;;4.03;2.63;;;;;;;;;;5072263;28;20036;-42
2022/12/06 05:37:11;;;;;;;4.90;2.28;;;;;;;;;;5070721;28;20436;-42
2022/12/06 05:39:36;;;;;;;5.95;2.47;;;;;;;;;;5071822;28;20048;-42
2022/12/06 05:42:02;;;;;;;8.15;3.20;;;;;;;;;;5072165;28;20020;-42
2022/12/06 05:44:27;;;;;;;6.72;3.35;;;;;;;;;;5072067;28;20040;-42
2022/12/06 05:46:52;;;;;;;7.18;3.67;;;;;;;;;;5070584;28;20025;-41
2022/12/06 05:49:18;;;;;;;11.77;3.60;;;;;;;;;;5071668;28;20386;-41
2022/12/06 05:51:43;;;;;;;8.32;4.10;;;;;;;;;;5071970;28;20067;-41
2022/12/06 05:54:09;;;;;;;11.15;5.68;;;;;;;;;;5071632;28;20109;-42
2022/12/06 05:56:34;;;;;;;8.35;4.53;;;;;;;;;;5071680;28;20433;-41
2022/12/06 05:59:00;;;;;;;9.23;4.75;;;;;;;;;;5070372;28;20028;-43
2022/12/06 06:01:25;;;;;;;6.35;3.95;;;;;;;;;;5071610;28;20027;-42
2022/12/06 06:03:51;;;;;;;8.07;5.22;;;;;;;;;;5071531;28;20028;-42
2022/12/06 06:06:16;;;;;;;7.18;3.40;;;;;;;;;;5071875;28;20016;-41
2022/12/06 06:08:41;;;;;;;5.15;3.05;;;;;;;;;;5071180;28;20036;-42
2022/12/06 06:11:07;;;;;;;7.13;3.47;;;;;;;;;;5071532;28;20653;-41
2022/12/06 06:13:32;;;;;;;11.07;3.97;;;;;;;;;;5071377;28;20035;-42
2022/12/06 06:15:58;;;;;;;5.63;3.05;;;;;;;;;;5071785;28;20048;-42
2022/12/06 06:18:23;;;;;;;7.38;3.72;;;;;;;;;;5071724;28;20028;-42
2022/12/06 06:20:53;;;;;;;6.57;3.58;;;;;;;;;;5070089;28;20021;-42
2022/12/06 06:23:19;;;;;;;9.80;4.65;;;;;;;;;;5071356;28;20032;-42
2022/12/06 06:25:45;;;;;;;10.43;4.28;;;;;;;;;;5071253;28;20528;-42
2022/12/06 06:28:11;;;;;;;7.78;5.03;;;;;;;;;;5071223;28;20035;-42
2022/12/06 06:30:36;;;;;;;5.32;3.38;;;;;;;;;;5071254;28;20025;-42
2022/12/06 06:33:01;;;;;;;6.70;3.85;;;;;;;;;;5071246;28;20086;-42
2022/12/06 06:35:27;;;;;;;10.55;3.47;;;;;;;;;;5071152;28;20107;-42
2022/12/06 06:37:52;;;;;;;5.40;3.58;;;;;;;;;;5071536;28;20024;-42
2022/12/06 06:40:18;;;;;;;6.95;4.38;;;;;;;;;;5074487;28;20032;-42
2022/12/06 06:42:43;;;;;;;5.85;3.42;;;;;;;;;;5075201;28;20044;-42
2022/12/06 06:45:09;;;;;;;7.03;3.75;;;;;;;;;;5075171;28;20025;-42
2022/12/06 06:47:34;;;;;;;8.48;4.53;;;;;;;;;;5075171;28;20032;-42
2022/12/06 06:50:00;;;;;;;6.85;4.05;;;;;;;;;;5075171;28;20081;-42
2022/12/06 06:52:25;;;;;;;5.75;3.53;;;;;;;;;;5075248;28;20059;-42
2022/12/06 06:54:50;;;;;;;6.10;3.80;;;;;;;;;;5075034;28;20049;-42
2022/12/06 06:57:17;;;;;;;5.13;3.88;;;;;;;;;;5074898;28;20051;-42
2022/12/06 06:59:42;;;;;;;6.43;3.63;;;;;;;;;;5075223;28;20095;-41
2022/12/06 07:02:10;;;;;;;7.35;3.40;;;;;;;;;;5074964;28;20146;-42
2022/12/06 07:04:36;;;;;;;8.63;4.53;;;;;;;;;;5075010;28;20032;-42
2022/12/06 07:07:01;;;;;;;9.90;5.30;;;;;;;;;;5075177;28;20029;-42
2022/12/06 07:09:27;;;;;;;4.38;3.63;;;;;;;;;;5075022;28;20094;-42
2022/12/06 07:11:52;;;;;;;6.47;3.47;;;;;;;;;;5074797;28;20433;-42
2022/12/06 07:14:17;;;;;;;7.68;4.85;;;;;;;;;;5075005;28;20025;-42
2022/12/06 07:16:43;;;;;;;9.25;4.60;;;;;;;;;;5074643;28;20123;-42
2022/12/06 07:19:08;;;;;;;12.40;4.13;;;;;;;;;;5074869;28;20103;-42
2022/12/06 07:21:33;;;;;;;7.38;4.22;;;;;;;;;;5074876;28;20470;-42
2022/12/06 07:23:59;;;;;;;9.27;4.90;;;;;;;;;;5074819;28;20052;-42
2022/12/06 07:26:27;;;;;;;9.18;4.68;;;;;;;;;;5074488;28;20111;-42
2022/12/06 07:28:55;;;;;;;7.57;4.20;;;;;;;;;;5074320;28;20028;-42
2022/12/06 07:31:21;;;;;;;9.05;5.25;;;;;;;;;;5073476;28;20391;-42
2022/12/06 07:33:47;;;;;;;6.70;4.28;;;;;;;;;;5074245;28;20081;-42
2022/12/06 07:36:13;;;;;;;7.38;3.88;;;;;;;;;;5074324;28;20032;-42
2022/12/06 07:38:40;;;;;;;9.98;4.35;;;;;;;;;;5074300;28;20024;-42
2022/12/06 07:44:59;;;;;;;7.03;3.30;;;;;;;;;;5074171;28;20032;-42
2022/12/06 07:46:37;;;;;;;3.88;2.15;;;;;;;;;;5074380;28;20040;-42
2022/12/06 07:49:04;;;;;;;5.93;3.83;;;;;;;;;;5074345;28;20446;-42
2022/12/06 07:51:29;;;;;;;5.57;3.67;;;;;;;;;;5073886;28;20451;-42
2022/12/06 07:53:55;;;;;;;6.22;3.75;;;;;;;;;;5073821;28;20052;-42
2022/12/06 07:56:20;;;;;;;5.53;2.92;;;;;;;;;;5073883;28;20047;-42
2022/12/06 07:58:45;;;;;;;7.60;2.95;;;;;;;;;;5073951;28;20033;-42
2022/12/06 08:01:11;;;;;;;8.57;3.55;;;;;;;;;;5073879;28;20161;-42
2022/12/06 08:03:37;;;;;;;8.90;3.67;;;;;;;;;;5073709;28;20028;-42
2022/12/06 08:06:02;;;;;;;5.40;2.90;;;;;;;;;;5073809;28;20036;-43
2022/12/06 08:08:30;;;;;;;4.97;2.85;;;;;;;;;;5073631;28;20032;-43
2022/12/06 08:10:59;;;;;;;5.10;2.90;;;;;;;;;;5073823;28;20154;-42
2022/12/06 08:13:24;;;;;;;6.85;3.85;;;;;;;;;;5073733;28;20483;-42
2022/12/06 08:15:50;;;;;;;5.50;3.42;;;;;;;;;;5073460;28;20044;-42
2022/12/06 08:18:15;;;;;;;7.07;4.18;;;;;;;;;;5073695;28;20021;-42
2022/12/06 08:20:41;;;;;;;3.78;3.25;;;;;;;;;;5073419;28;20036;-42
2022/12/06 08:23:06;;;;;;;6.25;3.10;;;;;;;;;;5073502;28;20017;-42
2022/12/06 08:25:32;;;;;;;5.30;2.90;;;;;;;;;;5073612;28;20391;-42
2022/12/06 08:27:57;;;;;;;4.45;2.92;;;;;;;;;;5073521;28;20032;-42
2022/12/06 08:30:22;;;;;;;4.70;3.15;;;;;;;;;;5073586;28;20391;-42
2022/12/06 08:32:48;;;;;;;5.45;3.10;;;;;;;;;;5073343;28;20095;-42
2022/12/06 08:35:13;;;;;;;3.72;2.53;;;;;;;;;;5073232;28;20108;-42
2022/12/06 08:37:38;;;;;;;5.85;3.03;;;;;;;;;;5073167;28;20024;-42
2022/12/06 08:40:04;;;;;;;5.60;3.28;;;;;;;;;;5073145;28;20037;-42
2022/12/06 08:42:30;;;;;;;3.92;2.33;;;;;;;;;;5073359;28;20020;-43
2022/12/06 08:44:55;;;;;;;3.17;2.13;;;;;;;;;;5073073;28;20028;-42
2022/12/06 08:47:20;;;;;;;2.95;2.20;;;;;;;;;;5071599;28;20112;-42
2022/12/06 08:49:48;;;;;;;4.43;2.95;;;;;;;;;;5073012;28;20040;-42
2022/12/06 08:52:13;;;;;;;3.15;2.08;;;;;;;;;;5072829;28;20021;-42
2022/12/06 08:54:38;;;;;;;9.50;2.63;;;;;;;;;;5072620;28;20105;-42
2022/12/06 08:57:04;;;;;;;3.92;1.70;;;;;;;;;;5072854;28;20043;-42
2022/12/06 08:59:29;;;;;;;2.35;1.88;;;;;;;;;;5072856;28;20029;-42
2022/12/06 09:01:55;;;;;;;5.00;2.88;;;;;;;;;;5071977;28;20042;-42
2022/12/06 09:04:20;;;;;;;5.82;3.35;;;;;;;;;;5072793;28;20082;-42
2022/12/06 09:06:46;;;;;;;4.07;2.00;;;;;;;;;;5072894;28;20017;-42
2022/12/06 09:09:13;;;;;;;4.20;2.08;;;;;;;;;;5072597;28;20398;-42
2022/12/06 09:11:38;;;;;;;4.03;2.30;;;;;;;;;;5072371;28;20021;-42
2022/12/06 09:14:04;;;;;;;3.33;1.63;;;;;;;;;;5072531;28;20035;-42
2022/12/06 09:16:30;;;;;;;2.20;1.95;;;;;;;;;;5072552;28;20024;-42
2022/12/06 09:18:56;;;;;;;5.65;1.90;;;;;;;;;;5072315;28;20427;-42
2022/12/06 09:21:23;;;;;;;2.53;1.90;;;;;;;;;;5072366;28;20027;-42
2022/12/06 09:23:49;;;;;;;3.47;2.60;;;;;;;;;;5072463;28;20036;-42
2022/12/06 09:26:14;;;;;;;2.90;1.98;;;;;;;;;;5072501;28;20062;-42
2022/12/06 09:28:40;;;;;;;3.20;1.80;;;;;;;;;;5072052;28;20704;-42
2022/12/06 09:31:06;;;;;;;2.65;1.73;;;;;;;;;;5072439;28;20020;-42
2022/12/06 09:33:32;;;;;;;2.05;1.63;;;;;;;;;;5072226;28;20447;-42
2022/12/06 09:35:58;;;;;;;2.03;1.48;;;;;;;;;;5072295;28;20017;-41
2022/12/06 09:38:26;;;;;;;2.47;1.58;;;;;;;;;;5072092;28;20032;-42
2022/12/06 09:41:04;;;;;;;3.47;2.03;;;;;;;;;;5072101;28;20021;-41
2022/12/06 09:43:39;;;;;;;3.55;1.90;;;;;;;;;;5071805;28;20194;-42
2022/12/06 09:46:09;;;;;;;3.20;2.20;;;;;;;;;;5071902;28;20074;-42
2022/12/06 09:48:40;;;;;;;2.40;1.45;;;;;;;;;;5071673;28;20411;-42
2022/12/06 09:51:09;;;;;;;2.42;1.63;;;;;;;;;;5071823;28;20063;-41
2022/12/06 09:53:37;;;;;;;2.30;1.77;;;;;;;;;;5071921;28;20016;-42
2022/12/06 09:56:21;;;;;;;4.95;1.63;;;;;;;;;;5071577;28;20044;-42
2022/12/06 09:58:50;;;;;;;1.75;1.58;;;;;;;;;;5071742;28;20111;-42
2022/12/06 10:01:28;;;;;;;3.05;2.00;;;;;;;;;;5071591;28;20398;-42
2022/12/06 10:04:02;;;;;;;1.73;1.00;;;;;;;;;;5070613;28;20243;-42
2022/12/06 10:06:33;;;;;;;2.30;2.03;;;;;;;;;;5071519;28;20040;-42
2022/12/06 10:09:01;;;;;;;1.65;1.30;;;;;;;;;;5071743;28;20043;-42
2022/12/06 10:11:50;;;;;;;2.63;2.03;;;;;;;;;;5070233;28;20447;-42
2022/12/06 10:14:34;;;;;;;2.90;1.30;;;;;;;;;;5051766;28;20076;-42
2022/12/06 10:16:59;;;;;;;2.03;1.08;;;;;;;;;;5071434;28;20111;-42
2022/12/06 10:19:27;;;;;;;2.38;1.35;;;;;;;;;;5071498;28;20100;-42
2022/12/06 10:21:53;;;;;;;3.05;1.55;;;;;;;;;;5069997;28;20059;-42
2022/12/06 10:24:30;;;;;;;1.60;1.40;;;;;;;;;;5071408;28;20051;-43
2022/12/06 10:27:01;;;;;;;1.55;1.30;;;;;;;;;;5071182;28;20035;-42
2022/12/06 10:29:53;;;;;;;3.30;1.85;;;;;;;;;;5071584;28;20387;-42
2022/12/06 10:32:18;;;;;;;3.75;2.55;;;;;;;;;;5069182;28;20558;-42
2022/12/06 10:34:55;;;;;;;2.08;1.60;;;;;;;;;;5071543;28;20131;-42
2022/12/06 10:37:26;;;;;;;2.03;1.33;;;;;;;;;;5071214;28;20482;-42
2022/12/06 10:40:00;;;;;;;1.42;0.60;;;;;;;;;;5071177;28;20173;-42
2022/12/06 10:42:25;;;;;;;3.65;1.52;;;;;;;;;;5071499;28;20032;-41
2022/12/06 10:47:02;;;;;;;1.10;1.00;;;;;;;;;;5071245;28;20020;-42
2022/12/06 10:47:52;;;;;;;2.17;1.60;;;;;;;;;;5071319;28;20082;-42
2022/12/06 10:50:21;;;;;;;1.13;1.02;;;;;;;;;;5071020;28;20039;-42
2022/12/06 10:52:57;;;;;;;2.58;1.67;;;;;;;;;;5069683;28;20058;-42
2022/12/06 10:55:29;;;;;;;3.15;1.35;;;;;;;;;;5070884;28;20163;-42
2022/12/06 10:57:54;;;;;;;1.98;1.45;;;;;;;;;;5071037;28;20501;-42
2022/12/06 11:00:27;;;;;;;1.42;1.17;;;;;;;;;;5070958;28;20071;-42
2022/12/06 11:02:55;;;;;;;2.60;1.58;;;;;;;;;;5070984;28;20101;-42
2022/12/06 11:05:31;;;;;;;1.75;0.82;;;;;;;;;;5070863;28;20479;-42
2022/12/06 11:08:09;;;;;;;1.05;0.82;;;;;;;;;;5069578;28;20045;-42
2022/12/06 11:10:35;;;;;;;3.13;1.13;;;;;;;;;;5071089;28;20028;-42
2022/12/06 11:13:08;;;;;;;1.02;0.93;;;;;;;;;;5070842;28;20020;-41
2022/12/06 11:15:34;;;;;;;1.27;1.00;;;;;;;;;;5071337;28;20089;-42
2022/12/06 11:18:07;;;;;;;0.73;0.60;;;;;;;;;;5070946;28;20104;-42
2022/12/06 11:20:37;;;;;;;0.73;0.73;;;;;;;;;;5071042;28;20089;-42
2022/12/06 11:23:05;;;;;;;0.98;0.98;;;;;;;;;;5071148;28;20081;-42
2022/12/06 11:25:44;;;;;;;0.77;0.70;;;;;;;;;;5072600;28;20044;-41
2022/12/06 11:28:10;;;;;;;0.98;0.82;;;;;;;;;;5074421;28;20493;-42
2022/12/06 11:30:35;;;;;;;1.15;0.80;;;;;;;;;;5074412;28;20024;-42
2022/12/06 11:33:01;;;;;;;0.98;0.80;;;;;;;;;;5073064;28;20036;-42
2022/12/06 11:35:27;;;;;;;0.75;0.68;;;;;;;;;;5074423;28;20016;-42
2022/12/06 11:37:55;;;;;;;0.60;0.60;;;;;;;;;;5074573;28;20025;-42
2022/12/06 11:40:26;;;;;;;1.27;0.98;;;;;;;;;;5074575;28;20017;-42
2022/12/06 11:42:52;;;;;;;3.22;0.93;;;;;;;;;;5074382;28;20097;-42
2022/12/06 11:45:25;;;;;;;0.88;0.60;;;;;;;;;;5074271;28;20056;-42
2022/12/06 11:47:54;;;;;;;1.42;1.00;;;;;;;;;;5074266;28;20105;-42
2022/12/06 11:50:20;;;;;;;0.77;0.77;;;;;;;;;;5072779;28;20028;-41
2022/12/06 11:52:52;;;;;;;1.23;0.85;;;;;;;;;;5072702;28;20016;-41
2022/12/06 11:55:20;;;;;;;0.57;0.57;;;;;;;;;;5073771;28;20650;-42
2022/12/06 11:57:50;;;;;;;0.60;0.60;;;;;;;;;;5074187;28;20454;-42
2022/12/06 12:00:17;;;;;;;1.27;0.60;;;;;;;;;;5073952;28;20032;-42
2022/12/06 12:02:44;;;;;;;0.95;0.60;;;;;;;;;;5073795;28;20016;-42
2022/12/06 12:05:18;;;;;;;1.48;0.60;;;;;;;;;;5073968;28;20037;-42
2022/12/06 12:07:46;;;;;;;0.73;0.73;;;;;;;;;;5073908;28;20051;-41
2022/12/06 12:10:27;;;;;;;1.10;0.85;;;;;;;;;;5073658;28;20043;-42
2022/12/06 12:15:38;;;;;;;0.77;0.77;;;;;;;;;;5072340;28;20028;-42
2022/12/06 12:18:05;;;;;;;0.75;0.65;;;;;;;;;;5073568;28;20016;-41
2022/12/06 12:20:32;;;;;;;0.95;0.68;;;;;;;;;;5072326;28;20036;-42
2022/12/06 12:23:00;;;;;;;0.60;0.60;;;;;;;;;;5073669;28;20035;-42
2022/12/06 12:25:26;;;;;;;1.95;0.90;;;;;;;;;;5073433;28;20498;-42
2022/12/06 12:27:55;;;;;;;1.52;0.73;;;;;;;;;;5073200;28;20029;-42
2022/12/06 12:30:30;;;;;;;0.82;0.73;;;;;;;;;;5073227;28;20036;-42
2022/12/06 12:33:05;;;;;;;1.40;1.13;;;;;;;;;;5073194;28;20127;-42
2022/12/06 12:35:32;;;;;;;2.15;0.90;;;;;;;;;;5071944;28;20036;-42
2022/12/06 12:38:09;;;;;;;0.98;0.82;;;;;;;;;;5071986;28;20036;-42
2022/12/06 12:40:37;;;;;;;0.52;0.52;;;;;;;;;;5073189;28;20513;-42
2022/12/06 12:43:11;;;;;;;0.82;0.82;;;;;;;;;;5073354;28;20574;-42
2022/12/06 12:45:55;;;;;;;0.73;0.70;;;;;;;;;;5073042;28;20020;-42
2022/12/06 12:48:22;;;;;;;1.05;0.65;;;;;;;;;;5072911;28;20033;-42
2022/12/06 12:50:55;;;;;;;0.77;0.70;;;;;;;;;;5073032;28;20104;-42
2022/12/06 12:53:31;;;;;;;1.85;0.80;;;;;;;;;;5072832;28;20398;-42
2022/12/06 12:56:07;;;;;;;1.13;0.60;;;;;;;;;;5072681;28;20827;-42
2022/12/06 12:58:33;;;;;;;0.52;0.50;;;;;;;;;;5072810;28;20036;-41
2022/12/06 13:01:03;;;;;;;1.38;0.73;;;;;;;;;;5072729;28;20017;-42
2022/12/06 13:03:29;;;;;;;0.70;0.70;;;;;;;;;;5072681;28;20025;-41
2022/12/06 13:05:56;;;;;;;4.43;0.82;;;;;;;;;;5072879;28;20027;-41
2022/12/06 13:08:25;;;;;;;0.75;0.55;;;;;;;;;;5072573;28;20052;-42
2022/12/06 13:10:53;;;;;;;1.02;0.82;;;;;;;;;;5072600;28;20086;-42
2022/12/06 13:13:31;;;;;;;0.73;0.73;;;;;;;;;;5072929;28;20063;-42
2022/12/06 13:15:57;;;;;;;0.73;0.73;;;;;;;;;;5072491;28;20025;-41
2022/12/06 13:18:40;;;;;;;0.50;0.40;;;;;;;;;;5072436;28;20062;-42
2022/12/06 13:21:22;;;;;;;1.90;0.50;;;;;;;;;;5072491;28;20031;-42
2022/12/06 13:23:55;;;;;;;0.40;0.40;;;;;;;;;;5072433;28;20378;-41
2022/12/06 13:26:25;;;;;;;2.25;0.70;;;;;;;;;;5072295;28;20032;-42
2022/12/06 13:28:56;;;;;;;1.25;0.73;;;;;;;;;;5072228;28;20044;-42
2022/12/06 13:31:25;;;;;;;2.47;0.43;;;;;;;;;;5072219;28;20056;-42
2022/12/06 13:33:52;;;;;;;0.93;0.40;;;;;;;;;;5072259;28;20403;-41
2022/12/06 13:36:18;;;;;;;0.63;0.63;;;;;;;;;;5072095;28;20028;-42
2022/12/06 13:38:43;;;;;;;0.80;0.65;;;;;;;;;;5072059;28;20024;-42
2022/12/06 13:41:13;;;;;;;3.03;0.68;;;;;;;;;;5071971;28;20031;-42
2022/12/06 13:43:38;;;;;;;1.48;0.57;;;;;;;;;;5071766;28;20020;-42
2022/12/06 13:46:21;;;;;;;0.73;0.60;;;;;;;;;;5071902;28;20112;-42
2022/12/06 13:48:48;;;;;;;0.60;0.60;;;;;;;;;;5071425;28;20760;-42
2022/12/06 13:51:33;;;;;;;0.77;0.70;;;;;;;;;;5071677;28;20032;-42
2022/12/06 13:54:01;;;;;;;0.93;0.57;;;;;;;;;;5071548;28;20029;-42
2022/12/06 13:56:28;;;;;;;0.52;0.50;;;;;;;;;;5072011;28;20036;-41
2022/12/06 13:58:55;;;;;;;0.32;0.32;;;;;;;;;;5071687;28;20036;-41
2022/12/06 14:01:47;;;;;;;0.63;0.40;;;;;;;;;;5071612;28;20046;-42
2022/12/06 14:04:28;;;;;;;0.73;0.63;;;;;;;;;;5069586;28;20080;-42
2022/12/06 14:06:53;;;;;;;0.70;0.60;;;;;;;;;;5071555;28;20039;-41
2022/12/06 14:09:19;;;;;;;0.68;0.68;;;;;;;;;;5071795;28;20033;-42
2022/12/06 14:11:45;;;;;;;1.10;0.52;;;;;;;;;;5071402;28;20020;-42
2022/12/06 14:14:15;;;;;;;1.95;0.40;;;;;;;;;;5071417;28;20540;-42
2022/12/06 14:16:44;;;;;;;0.98;0.50;;;;;;;;;;5071350;28;20029;-42
2022/12/06 14:19:20;;;;;;;0.43;0.40;;;;;;;;;;5071471;28;20378;-42
2022/12/06 14:21:51;;;;;;;0.50;0.47;;;;;;;;;;5071356;28;20085;-42
2022/12/06 14:24:35;;;;;;;1.85;0.50;;;;;;;;;;5071326;28;20475;-41
2022/12/06 14:27:06;;;;;;;1.55;0.50;;;;;;;;;;5071576;28;20078;-42
2022/12/06 14:29:31;;;;;;;5.43;0.63;;;;;;;;;;5071347;28;20449;-41
2022/12/06 14:31:57;;;;;;;0.50;0.50;;;;;;;;;;5071198;28;20024;-42
2022/12/06 14:34:25;;;;;;;0.52;0.50;;;;;;;;;;5071221;28;20669;-43
2022/12/06 14:36:50;;;;;;;1.55;0.47;;;;;;;;;;5071591;28;20040;-42
2022/12/06 14:39:18;;;;;;;0.55;0.55;;;;;;;;;;5071228;28;20060;-42
2022/12/06 14:44:35;;;;;;;3.17;0.73;;;;;;;;;;5071208;28;20025;-42
2022/12/06 14:47:01;;;;;;;0.85;0.60;;;;;;;;;;5071120;28;20020;-42
2022/12/06 14:52:26;;;;;;;1.83;0.70;;;;;;;;;;5071111;28;20029;-42
2022/12/06 14:55:05;;;;;;;0.45;0.45;;;;;;;;;;5070872;28;20510;-42
2022/12/06 14:57:37;;;;;;;0.55;0.40;;;;;;;;;;5071071;28;20036;-42
2022/12/06 15:00:14;;;;;;;1.35;1.25;;;;;;;;;;5072158;28;20032;-42
2022/12/06 15:02:40;;;;;;;0.88;0.68;;;;;;;;;;5074736;28;20032;-41
2022/12/06 15:05:23;;;;;;;1.85;0.85;;;;;;;;;;5075323;28;20016;-42
2022/12/06 15:07:50;;;;;;;3.28;0.88;;;;;;;;;;5074829;28;20075;-42
2022/12/06 15:10:31;;;;;;;1.50;0.90;;;;;;;;;;5074931;28;20020;-41
2022/12/06 15:13:13;;;;;;;0.60;0.60;;;;;;;;;;5074833;28;20024;-42
2022/12/06 15:15:40;;;;;;;0.65;0.60;;;;;;;;;;5073356;28;20047;-42
2022/12/06 15:18:09;;;;;;;0.35;0.35;;;;;;;;;;5074891;28;20055;-41
2022/12/06 15:20:35;;;;;;;1.33;0.65;;;;;;;;;;5074824;28;20029;-42